sensor_id;sensor_type;location;lat;lon;timestamp;P1;durP1;ratioP1;P2;durP2;ratioP2
18172;SDS011;9211;48.818;9.312;2023-10-31T00:00:41;3.25;;;0.47;;
18172;SDS011;9211;48.818;9.312;2023-10-31T00:03:08;3.65;;;0.50;;
18172;SDS011;9211;48.818;9.312;2023-10-31T00:05:35;2.05;;;0.50;;
18172;SDS011;9211;48.818;9.312;2023-10-31T00:08:04;0.63;;;0.38;;
18172;SDS011;9211;48.818;9.312;2023-10-31T00:10:31;1.40;;;0.40;;
18172;SDS011;9211;48.818;9.312;2023-10-31T00:12:58;0.95;;;0.40;;
18172;SDS011;9211;48.818;9.312;2023-10-31T00:15:25;1.10;;;0.40;;
18172;SDS011;9211;48.818;9.312;2023-10-31T00:17:52;0.60;;;0.40;;
18172;SDS011;9211;48.818;9.312;2023-10-31T00:20:19;1.30;;;0.40;;
18172;SDS011;9211;48.818;9.312;2023-10-31T00:22:46;1.30;;;0.40;;
18172;SDS011;9211;48.818;9.312;2023-10-31T00:25:14;0.45;;;0.30;;
18172;SDS011;9211;48.818;9.312;2023-10-31T00:27:41;1.85;;;0.40;;
18172;SDS011;9211;48.818;9.312;2023-10-31T00:30:08;1.40;;;0.70;;
18172;SDS011;9211;48.818;9.312;2023-10-31T00:32:35;0.53;;;0.37;;
18172;SDS011;9211;48.818;9.312;2023-10-31T00:35:02;1.52;;;0.50;;
18172;SDS011;9211;48.818;9.312;2023-10-31T00:37:29;1.90;;;0.50;;
18172;SDS011;9211;48.818;9.312;2023-10-31T00:39:56;0.73;;;0.50;;
18172;SDS011;9211;48.818;9.312;2023-10-31T00:42:24;0.70;;;0.50;;
18172;SDS011;9211;48.818;9.312;2023-10-31T00:44:51;0.93;;;0.50;;
18172;SDS011;9211;48.818;9.312;2023-10-31T00:47:18;1.55;;;0.50;;
18172;SDS011;9211;48.818;9.312;2023-10-31T00:49:45;1.37;;;0.47;;
18172;SDS011;9211;48.818;9.312;2023-10-31T00:52:12;1.33;;;0.40;;
18172;SDS011;9211;48.818;9.312;2023-10-31T00:54:39;0.57;;;0.33;;
18172;SDS011;9211;48.818;9.312;2023-10-31T00:57:06;0.97;;;0.40;;
18172;SDS011;9211;48.818;9.312;2023-10-31T00:59:34;2.22;;;0.40;;
18172;SDS011;9211;48.818;9.312;2023-10-31T01:02:01;0.60;;;0.32;;
18172;SDS011;9211;48.818;9.312;2023-10-31T01:04:28;1.00;;;0.50;;
18172;SDS011;9211;48.818;9.312;2023-10-31T01:06:55;1.42;;;0.40;;
18172;SDS011;9211;48.818;9.312;2023-10-31T01:09:21;0.90;;;0.30;;
18172;SDS011;9211;48.818;9.312;2023-10-31T01:11:49;1.20;;;0.33;;
18172;SDS011;9211;48.818;9.312;2023-10-31T01:14:15;0.30;;;0.20;;
18172;SDS011;9211;48.818;9.312;2023-10-31T01:16:44;0.98;;;0.38;;
18172;SDS011;9211;48.818;9.312;2023-10-31T01:19:11;1.80;;;0.30;;
18172;SDS011;9211;48.818;9.312;2023-10-31T01:21:37;0.50;;;0.30;;
18172;SDS011;9211;48.818;9.312;2023-10-31T01:24:04;0.80;;;0.30;;
18172;SDS011;9211;48.818;9.312;2023-10-31T01:26:32;0.60;;;0.38;;
18172;SDS011;9211;48.818;9.312;2023-10-31T01:29:01;1.40;;;0.30;;
18172;SDS011;9211;48.818;9.312;2023-10-31T01:31:27;0.70;;;0.37;;
18172;SDS011;9211;48.818;9.312;2023-10-31T01:33:56;1.10;;;0.40;;
18172;SDS011;9211;48.818;9.312;2023-10-31T01:36:23;0.90;;;0.30;;
18172;SDS011;9211;48.818;9.312;2023-10-31T01:38:51;3.10;;;0.30;;
18172;SDS011;9211;48.818;9.312;2023-10-31T01:41:18;0.95;;;0.30;;
18172;SDS011;9211;48.818;9.312;2023-10-31T01:43:45;0.75;;;0.30;;
18172;SDS011;9211;48.818;9.312;2023-10-31T01:46:12;0.50;;;0.40;;
18172;SDS011;9211;48.818;9.312;2023-10-31T01:48:40;1.48;;;0.40;;
18172;SDS011;9211;48.818;9.312;2023-10-31T01:51:09;3.50;;;0.70;;
18172;SDS011;9211;48.818;9.312;2023-10-31T01:53:36;0.85;;;0.40;;
18172;SDS011;9211;48.818;9.312;2023-10-31T01:56:04;0.68;;;0.38;;
18172;SDS011;9211;48.818;9.312;2023-10-31T01:58:34;1.70;;;0.50;;
18172;SDS011;9211;48.818;9.312;2023-10-31T02:01:02;1.00;;;0.40;;
18172;SDS011;9211;48.818;9.312;2023-10-31T02:03:30;2.50;;;0.40;;
18172;SDS011;9211;48.818;9.312;2023-10-31T02:05:58;0.75;;;0.38;;
18172;SDS011;9211;48.818;9.312;2023-10-31T02:08:26;1.92;;;0.40;;
18172;SDS011;9211;48.818;9.312;2023-10-31T02:10:53;1.27;;;0.50;;
18172;SDS011;9211;48.818;9.312;2023-10-31T02:13:20;1.38;;;0.38;;
18172;SDS011;9211;48.818;9.312;2023-10-31T02:15:47;1.27;;;0.40;;
18172;SDS011;9211;48.818;9.312;2023-10-31T02:18:14;1.10;;;0.40;;
18172;SDS011;9211;48.818;9.312;2023-10-31T02:20:41;1.75;;;0.40;;
18172;SDS011;9211;48.818;9.312;2023-10-31T02:23:10;1.50;;;0.47;;
18172;SDS011;9211;48.818;9.312;2023-10-31T02:25:37;2.03;;;0.60;;
18172;SDS011;9211;48.818;9.312;2023-10-31T02:28:04;0.80;;;0.40;;
18172;SDS011;9211;48.818;9.312;2023-10-31T02:30:30;1.60;;;0.40;;
18172;SDS011;9211;48.818;9.312;2023-10-31T02:32:57;2.20;;;0.40;;
18172;SDS011;9211;48.818;9.312;2023-10-31T02:35:24;0.67;;;0.40;;
18172;SDS011;9211;48.818;9.312;2023-10-31T02:37:51;2.72;;;0.40;;
18172;SDS011;9211;48.818;9.312;2023-10-31T02:40:19;2.50;;;0.50;;
18172;SDS011;9211;48.818;9.312;2023-10-31T02:42:46;1.30;;;0.40;;
18172;SDS011;9211;48.818;9.312;2023-10-31T02:45:13;1.10;;;0.50;;
18172;SDS011;9211;48.818;9.312;2023-10-31T02:47:40;0.65;;;0.40;;
18172;SDS011;9211;48.818;9.312;2023-10-31T02:50:07;2.47;;;0.60;;
18172;SDS011;9211;48.818;9.312;2023-10-31T02:52:34;1.83;;;0.45;;
18172;SDS011;9211;48.818;9.312;2023-10-31T02:55:01;1.20;;;0.50;;
18172;SDS011;9211;48.818;9.312;2023-10-31T02:57:29;2.08;;;0.60;;
18172;SDS011;9211;48.818;9.312;2023-10-31T02:59:56;1.63;;;0.55;;
18172;SDS011;9211;48.818;9.312;2023-10-31T03:02:23;2.05;;;0.50;;
18172;SDS011;9211;48.818;9.312;2023-10-31T03:04:50;1.60;;;0.50;;
18172;SDS011;9211;48.818;9.312;2023-10-31T03:07:17;2.75;;;0.50;;
18172;SDS011;9211;48.818;9.312;2023-10-31T03:09:44;6.60;;;0.60;;
18172;SDS011;9211;48.818;9.312;2023-10-31T03:12:11;2.20;;;0.50;;
18172;SDS011;9211;48.818;9.312;2023-10-31T03:14:39;2.03;;;0.50;;
18172;SDS011;9211;48.818;9.312;2023-10-31T03:17:06;2.47;;;0.70;;
18172;SDS011;9211;48.818;9.312;2023-10-31T03:19:32;2.45;;;0.55;;
18172;SDS011;9211;48.818;9.312;2023-10-31T03:21:59;2.60;;;0.60;;
18172;SDS011;9211;48.818;9.312;2023-10-31T03:24:26;3.00;;;0.60;;
18172;SDS011;9211;48.818;9.312;2023-10-31T03:26:53;2.23;;;0.70;;
18172;SDS011;9211;48.818;9.312;2023-10-31T03:29:20;2.17;;;0.50;;
18172;SDS011;9211;48.818;9.312;2023-10-31T03:31:48;2.03;;;0.60;;
18172;SDS011;9211;48.818;9.312;2023-10-31T03:34:15;3.28;;;0.70;;
18172;SDS011;9211;48.818;9.312;2023-10-31T03:36:42;1.80;;;0.60;;
18172;SDS011;9211;48.818;9.312;2023-10-31T03:39:09;1.77;;;0.60;;
18172;SDS011;9211;48.818;9.312;2023-10-31T03:41:35;2.53;;;0.60;;
18172;SDS011;9211;48.818;9.312;2023-10-31T03:44:02;2.55;;;0.70;;
18172;SDS011;9211;48.818;9.312;2023-10-31T03:46:30;2.67;;;0.60;;
18172;SDS011;9211;48.818;9.312;2023-10-31T03:48:58;2.50;;;0.57;;
18172;SDS011;9211;48.818;9.312;2023-10-31T03:51:25;1.58;;;0.73;;
18172;SDS011;9211;48.818;9.312;2023-10-31T03:53:52;2.45;;;0.60;;
18172;SDS011;9211;48.818;9.312;2023-10-31T03:56:18;2.67;;;0.70;;
18172;SDS011;9211;48.818;9.312;2023-10-31T03:58:45;3.42;;;0.70;;
18172;SDS011;9211;48.818;9.312;2023-10-31T04:01:12;3.50;;;0.70;;
18172;SDS011;9211;48.818;9.312;2023-10-31T04:03:39;2.92;;;0.63;;
18172;SDS011;9211;48.818;9.312;2023-10-31T04:06:07;2.00;;;0.50;;
18172;SDS011;9211;48.818;9.312;2023-10-31T04:08:35;3.20;;;0.70;;
18172;SDS011;9211;48.818;9.312;2023-10-31T04:11:02;1.17;;;0.60;;
18172;SDS011;9211;48.818;9.312;2023-10-31T04:13:29;2.38;;;0.68;;
18172;SDS011;9211;48.818;9.312;2023-10-31T04:15:56;2.50;;;0.70;;
18172;SDS011;9211;48.818;9.312;2023-10-31T04:18:23;1.80;;;0.60;;
18172;SDS011;9211;48.818;9.312;2023-10-31T04:20:50;2.45;;;0.70;;
18172;SDS011;9211;48.818;9.312;2023-10-31T04:23:18;1.20;;;0.50;;
18172;SDS011;9211;48.818;9.312;2023-10-31T04:25:45;1.50;;;0.60;;
18172;SDS011;9211;48.818;9.312;2023-10-31T04:28:15;1.20;;;0.60;;
18172;SDS011;9211;48.818;9.312;2023-10-31T04:30:42;1.30;;;0.60;;
18172;SDS011;9211;48.818;9.312;2023-10-31T04:33:09;2.05;;;0.60;;
18172;SDS011;9211;48.818;9.312;2023-10-31T04:35:36;2.33;;;0.50;;
18172;SDS011;9211;48.818;9.312;2023-10-31T04:38:04;1.75;;;0.70;;
18172;SDS011;9211;48.818;9.312;2023-10-31T04:40:32;3.03;;;0.77;;
18172;SDS011;9211;48.818;9.312;2023-10-31T04:42:59;2.70;;;0.60;;
18172;SDS011;9211;48.818;9.312;2023-10-31T04:45:26;1.77;;;0.60;;
18172;SDS011;9211;48.818;9.312;2023-10-31T04:47:53;1.80;;;0.60;;
18172;SDS011;9211;48.818;9.312;2023-10-31T04:50:20;2.22;;;0.60;;
18172;SDS011;9211;48.818;9.312;2023-10-31T04:52:47;3.25;;;0.68;;
18172;SDS011;9211;48.818;9.312;2023-10-31T04:55:14;2.10;;;0.50;;
18172;SDS011;9211;48.818;9.312;2023-10-31T04:57:42;1.70;;;0.50;;
18172;SDS011;9211;48.818;9.312;2023-10-31T05:00:09;1.30;;;0.50;;
18172;SDS011;9211;48.818;9.312;2023-10-31T05:02:37;2.42;;;0.70;;
18172;SDS011;9211;48.818;9.312;2023-10-31T05:05:04;2.80;;;0.60;;
18172;SDS011;9211;48.818;9.312;2023-10-31T05:07:31;2.67;;;0.70;;
18172;SDS011;9211;48.818;9.312;2023-10-31T05:09:58;2.63;;;0.80;;
18172;SDS011;9211;48.818;9.312;2023-10-31T05:12:25;4.60;;;1.40;;
18172;SDS011;9211;48.818;9.312;2023-10-31T05:14:53;2.17;;;0.90;;
18172;SDS011;9211;48.818;9.312;2023-10-31T05:17:20;3.60;;;0.80;;
18172;SDS011;9211;48.818;9.312;2023-10-31T05:19:47;3.05;;;0.93;;
18172;SDS011;9211;48.818;9.312;2023-10-31T05:22:15;2.58;;;0.82;;
18172;SDS011;9211;48.818;9.312;2023-10-31T05:24:41;3.60;;;1.60;;
18172;SDS011;9211;48.818;9.312;2023-10-31T05:27:08;4.10;;;1.50;;
18172;SDS011;9211;48.818;9.312;2023-10-31T05:29:35;6.13;;;1.20;;
18172;SDS011;9211;48.818;9.312;2023-10-31T05:32:05;2.70;;;0.90;;
18172;SDS011;9211;48.818;9.312;2023-10-31T05:34:32;2.47;;;0.80;;
18172;SDS011;9211;48.818;9.312;2023-10-31T05:36:59;3.13;;;0.80;;
18172;SDS011;9211;48.818;9.312;2023-10-31T05:39:26;1.63;;;0.88;;
18172;SDS011;9211;48.818;9.312;2023-10-31T05:41:53;4.95;;;1.10;;
18172;SDS011;9211;48.818;9.312;2023-10-31T05:44:20;3.38;;;0.90;;
18172;SDS011;9211;48.818;9.312;2023-10-31T05:46:46;2.42;;;0.90;;
18172;SDS011;9211;48.818;9.312;2023-10-31T05:49:15;2.45;;;1.05;;
18172;SDS011;9211;48.818;9.312;2023-10-31T05:51:42;3.47;;;1.08;;
18172;SDS011;9211;48.818;9.312;2023-10-31T05:54:09;5.85;;;1.25;;
18172;SDS011;9211;48.818;9.312;2023-10-31T05:56:36;4.05;;;1.00;;
18172;SDS011;9211;48.818;9.312;2023-10-31T05:59:03;2.70;;;1.02;;
18172;SDS011;9211;48.818;9.312;2023-10-31T06:01:30;4.20;;;0.90;;
18172;SDS011;9211;48.818;9.312;2023-10-31T06:03:57;3.27;;;1.00;;
18172;SDS011;9211;48.818;9.312;2023-10-31T06:06:25;7.60;;;2.75;;
18172;SDS011;9211;48.818;9.312;2023-10-31T06:08:52;3.92;;;1.42;;
18172;SDS011;9211;48.818;9.312;2023-10-31T06:11:18;1.77;;;1.10;;
18172;SDS011;9211;48.818;9.312;2023-10-31T06:13:45;3.72;;;1.05;;
18172;SDS011;9211;48.818;9.312;2023-10-31T06:16:13;8.07;;;1.00;;
18172;SDS011;9211;48.818;9.312;2023-10-31T06:18:40;2.05;;;0.70;;
18172;SDS011;9211;48.818;9.312;2023-10-31T06:21:06;4.20;;;0.88;;
18172;SDS011;9211;48.818;9.312;2023-10-31T06:23:36;4.43;;;0.65;;
18172;SDS011;9211;48.818;9.312;2023-10-31T06:26:03;3.30;;;0.70;;
18172;SDS011;9211;48.818;9.312;2023-10-31T06:28:30;2.35;;;0.40;;
18172;SDS011;9211;48.818;9.312;2023-10-31T06:30:59;2.35;;;0.52;;
18172;SDS011;9211;48.818;9.312;2023-10-31T06:33:27;2.03;;;0.55;;
18172;SDS011;9211;48.818;9.312;2023-10-31T06:35:53;4.78;;;1.00;;
18172;SDS011;9211;48.818;9.312;2023-10-31T06:38:20;3.25;;;0.90;;
18172;SDS011;9211;48.818;9.312;2023-10-31T06:40:49;1.80;;;0.60;;
18172;SDS011;9211;48.818;9.312;2023-10-31T06:43:15;2.55;;;0.60;;
18172;SDS011;9211;48.818;9.312;2023-10-31T06:45:42;1.83;;;0.70;;
18172;SDS011;9211;48.818;9.312;2023-10-31T06:48:09;2.97;;;1.05;;
18172;SDS011;9211;48.818;9.312;2023-10-31T06:50:36;2.28;;;0.80;;
18172;SDS011;9211;48.818;9.312;2023-10-31T06:53:03;2.08;;;0.77;;
18172;SDS011;9211;48.818;9.312;2023-10-31T06:55:30;2.60;;;0.60;;
18172;SDS011;9211;48.818;9.312;2023-10-31T06:57:58;1.90;;;0.50;;
18172;SDS011;9211;48.818;9.312;2023-10-31T07:00:25;4.28;;;0.68;;
18172;SDS011;9211;48.818;9.312;2023-10-31T07:02:53;3.50;;;0.50;;
18172;SDS011;9211;48.818;9.312;2023-10-31T07:05:20;2.65;;;0.50;;
18172;SDS011;9211;48.818;9.312;2023-10-31T07:07:47;1.00;;;0.40;;
18172;SDS011;9211;48.818;9.312;2023-10-31T07:10:14;1.52;;;0.50;;
18172;SDS011;9211;48.818;9.312;2023-10-31T07:12:41;1.77;;;0.50;;
18172;SDS011;9211;48.818;9.312;2023-10-31T07:15:09;1.60;;;0.40;;
18172;SDS011;9211;48.818;9.312;2023-10-31T07:17:36;0.50;;;0.30;;
18172;SDS011;9211;48.818;9.312;2023-10-31T07:20:03;1.40;;;0.45;;
18172;SDS011;9211;48.818;9.312;2023-10-31T07:22:31;2.47;;;0.60;;
18172;SDS011;9211;48.818;9.312;2023-10-31T07:24:59;1.73;;;0.60;;
18172;SDS011;9211;48.818;9.312;2023-10-31T07:27:28;1.52;;;0.35;;
18172;SDS011;9211;48.818;9.312;2023-10-31T07:29:55;2.70;;;0.50;;
18172;SDS011;9211;48.818;9.312;2023-10-31T07:32:23;0.90;;;0.50;;
18172;SDS011;9211;48.818;9.312;2023-10-31T07:34:50;1.05;;;0.40;;
18172;SDS011;9211;48.818;9.312;2023-10-31T07:37:17;1.30;;;0.40;;
18172;SDS011;9211;48.818;9.312;2023-10-31T07:39:44;3.80;;;0.55;;
18172;SDS011;9211;48.818;9.312;2023-10-31T07:42:11;3.53;;;0.60;;
18172;SDS011;9211;48.818;9.312;2023-10-31T07:44:38;1.97;;;0.50;;
18172;SDS011;9211;48.818;9.312;2023-10-31T07:47:05;5.90;;;0.80;;
18172;SDS011;9211;48.818;9.312;2023-10-31T07:49:33;1.70;;;0.40;;
18172;SDS011;9211;48.818;9.312;2023-10-31T07:52:00;1.10;;;0.47;;
18172;SDS011;9211;48.818;9.312;2023-10-31T07:54:27;2.30;;;0.70;;
18172;SDS011;9211;48.818;9.312;2023-10-31T07:56:54;1.48;;;0.47;;
18172;SDS011;9211;48.818;9.312;2023-10-31T07:59:20;2.00;;;0.50;;
18172;SDS011;9211;48.818;9.312;2023-10-31T08:01:47;5.55;;;0.65;;
18172;SDS011;9211;48.818;9.312;2023-10-31T08:04:15;2.50;;;0.50;;
18172;SDS011;9211;48.818;9.312;2023-10-31T08:06:44;2.15;;;0.60;;
18172;SDS011;9211;48.818;9.312;2023-10-31T08:09:10;2.75;;;0.65;;
18172;SDS011;9211;48.818;9.312;2023-10-31T08:11:37;0.85;;;0.50;;
18172;SDS011;9211;48.818;9.312;2023-10-31T08:14:04;1.60;;;0.45;;
18172;SDS011;9211;48.818;9.312;2023-10-31T08:16:31;2.63;;;0.60;;
18172;SDS011;9211;48.818;9.312;2023-10-31T08:18:59;2.37;;;0.50;;
18172;SDS011;9211;48.818;9.312;2023-10-31T08:21:26;2.03;;;0.68;;
18172;SDS011;9211;48.818;9.312;2023-10-31T08:23:59;1.77;;;0.43;;
18172;SDS011;9211;48.818;9.312;2023-10-31T08:26:27;4.43;;;0.75;;
18172;SDS011;9211;48.818;9.312;2023-10-31T08:28:53;5.03;;;0.93;;
18172;SDS011;9211;48.818;9.312;2023-10-31T08:31:21;1.17;;;0.60;;
18172;SDS011;9211;48.818;9.312;2023-10-31T08:33:48;2.22;;;0.60;;
18172;SDS011;9211;48.818;9.312;2023-10-31T08:36:15;4.40;;;0.60;;
18172;SDS011;9211;48.818;9.312;2023-10-31T08:38:42;3.20;;;0.50;;
18172;SDS011;9211;48.818;9.312;2023-10-31T08:41:10;3.90;;;0.70;;
18172;SDS011;9211;48.818;9.312;2023-10-31T08:43:37;2.17;;;0.70;;
18172;SDS011;9211;48.818;9.312;2023-10-31T08:46:04;2.17;;;0.57;;
18172;SDS011;9211;48.818;9.312;2023-10-31T08:48:31;2.38;;;0.70;;
18172;SDS011;9211;48.818;9.312;2023-10-31T08:50:58;3.73;;;0.77;;
18172;SDS011;9211;48.818;9.312;2023-10-31T08:53:25;4.53;;;0.77;;
18172;SDS011;9211;48.818;9.312;2023-10-31T08:55:52;1.55;;;0.63;;
18172;SDS011;9211;48.818;9.312;2023-10-31T08:58:20;2.35;;;0.60;;
18172;SDS011;9211;48.818;9.312;2023-10-31T09:00:47;2.38;;;0.70;;
18172;SDS011;9211;48.818;9.312;2023-10-31T09:03:14;5.20;;;0.90;;
18172;SDS011;9211;48.818;9.312;2023-10-31T09:05:41;4.68;;;0.73;;
18172;SDS011;9211;48.818;9.312;2023-10-31T09:08:09;2.00;;;0.68;;
18172;SDS011;9211;48.818;9.312;2023-10-31T09:10:36;2.10;;;0.63;;
18172;SDS011;9211;48.818;9.312;2023-10-31T09:13:03;2.80;;;0.75;;
18172;SDS011;9211;48.818;9.312;2023-10-31T09:15:32;4.07;;;0.73;;
18172;SDS011;9211;48.818;9.312;2023-10-31T09:17:59;2.00;;;0.70;;
18172;SDS011;9211;48.818;9.312;2023-10-31T09:20:26;3.97;;;0.70;;
18172;SDS011;9211;48.818;9.312;2023-10-31T09:22:54;3.15;;;0.70;;
18172;SDS011;9211;48.818;9.312;2023-10-31T09:25:21;3.30;;;0.70;;
18172;SDS011;9211;48.818;9.312;2023-10-31T09:27:48;4.40;;;0.90;;
18172;SDS011;9211;48.818;9.312;2023-10-31T09:30:15;3.03;;;0.60;;
18172;SDS011;9211;48.818;9.312;2023-10-31T09:32:43;3.35;;;0.70;;
18172;SDS011;9211;48.818;9.312;2023-10-31T09:35:10;3.50;;;0.70;;
18172;SDS011;9211;48.818;9.312;2023-10-31T09:37:38;4.75;;;1.05;;
18172;SDS011;9211;48.818;9.312;2023-10-31T09:40:06;3.65;;;0.63;;
18172;SDS011;9211;48.818;9.312;2023-10-31T09:42:33;4.82;;;0.70;;
18172;SDS011;9211;48.818;9.312;2023-10-31T09:45:00;4.88;;;0.90;;
18172;SDS011;9211;48.818;9.312;2023-10-31T09:47:28;2.28;;;0.70;;
18172;SDS011;9211;48.818;9.312;2023-10-31T09:49:57;4.13;;;0.82;;
18172;SDS011;9211;48.818;9.312;2023-10-31T09:52:25;3.00;;;0.70;;
18172;SDS011;9211;48.818;9.312;2023-10-31T09:54:52;3.63;;;0.90;;
18172;SDS011;9211;48.818;9.312;2023-10-31T09:57:20;2.53;;;0.65;;
18172;SDS011;9211;48.818;9.312;2023-10-31T09:59:47;1.80;;;0.68;;
18172;SDS011;9211;48.818;9.312;2023-10-31T10:02:14;2.80;;;0.90;;
18172;SDS011;9211;48.818;9.312;2023-10-31T10:04:41;4.45;;;0.75;;
18172;SDS011;9211;48.818;9.312;2023-10-31T10:07:09;2.88;;;0.80;;
18172;SDS011;9211;48.818;9.312;2023-10-31T10:09:41;2.90;;;0.60;;
18172;SDS011;9211;48.818;9.312;2023-10-31T10:12:10;6.43;;;0.93;;
18172;SDS011;9211;48.818;9.312;2023-10-31T10:14:38;3.88;;;0.90;;
18172;SDS011;9211;48.818;9.312;2023-10-31T10:17:11;4.72;;;0.80;;
18172;SDS011;9211;48.818;9.312;2023-10-31T10:19:41;4.97;;;0.82;;
18172;SDS011;9211;48.818;9.312;2023-10-31T10:22:09;5.38;;;1.00;;
18172;SDS011;9211;48.818;9.312;2023-10-31T10:24:38;5.20;;;0.90;;
18172;SDS011;9211;48.818;9.312;2023-10-31T10:27:06;4.28;;;1.00;;
18172;SDS011;9211;48.818;9.312;2023-10-31T10:29:34;4.53;;;0.80;;
18172;SDS011;9211;48.818;9.312;2023-10-31T10:32:01;4.83;;;1.00;;
18172;SDS011;9211;48.818;9.312;2023-10-31T10:34:33;3.05;;;0.73;;
18172;SDS011;9211;48.818;9.312;2023-10-31T10:37:00;4.70;;;0.80;;
18172;SDS011;9211;48.818;9.312;2023-10-31T10:39:32;4.75;;;1.00;;
18172;SDS011;9211;48.818;9.312;2023-10-31T10:42:00;5.22;;;1.10;;
18172;SDS011;9211;48.818;9.312;2023-10-31T10:44:31;3.35;;;1.00;;
18172;SDS011;9211;48.818;9.312;2023-10-31T10:46:59;3.40;;;0.80;;
18172;SDS011;9211;48.818;9.312;2023-10-31T10:49:28;6.00;;;1.00;;
18172;SDS011;9211;48.818;9.312;2023-10-31T10:51:58;5.38;;;0.88;;
18172;SDS011;9211;48.818;9.312;2023-10-31T10:54:34;6.07;;;1.00;;
18172;SDS011;9211;48.818;9.312;2023-10-31T10:57:07;3.92;;;1.10;;
18172;SDS011;9211;48.818;9.312;2023-10-31T10:59:41;4.68;;;1.10;;
18172;SDS011;9211;48.818;9.312;2023-10-31T11:02:09;5.55;;;1.00;;
18172;SDS011;9211;48.818;9.312;2023-10-31T11:04:39;4.07;;;0.98;;
18172;SDS011;9211;48.818;9.312;2023-10-31T11:07:09;5.53;;;1.00;;
18172;SDS011;9211;48.818;9.312;2023-10-31T11:09:37;4.90;;;1.10;;
18172;SDS011;9211;48.818;9.312;2023-10-31T11:12:05;4.15;;;1.00;;
18172;SDS011;9211;48.818;9.312;2023-10-31T11:14:33;5.30;;;1.23;;
18172;SDS011;9211;48.818;9.312;2023-10-31T11:17:02;5.10;;;1.00;;
18172;SDS011;9211;48.818;9.312;2023-10-31T11:19:35;2.77;;;0.90;;
18172;SDS011;9211;48.818;9.312;2023-10-31T11:22:03;5.50;;;1.20;;
18172;SDS011;9211;48.818;9.312;2023-10-31T11:24:32;4.55;;;1.20;;
18172;SDS011;9211;48.818;9.312;2023-10-31T11:27:02;4.60;;;1.00;;
18172;SDS011;9211;48.818;9.312;2023-10-31T11:29:30;6.30;;;1.00;;
18172;SDS011;9211;48.818;9.312;2023-10-31T11:31:57;3.08;;;0.60;;
18172;SDS011;9211;48.818;9.312;2023-10-31T11:34:26;4.57;;;0.90;;
18172;SDS011;9211;48.818;9.312;2023-10-31T11:36:53;3.28;;;0.85;;
18172;SDS011;9211;48.818;9.312;2023-10-31T11:39:40;3.45;;;0.80;;
18172;SDS011;9211;48.818;9.312;2023-10-31T11:42:17;2.65;;;0.80;;
18172;SDS011;9211;48.818;9.312;2023-10-31T11:44:54;2.88;;;0.88;;
18172;SDS011;9211;48.818;9.312;2023-10-31T11:47:22;4.50;;;1.00;;
18172;SDS011;9211;48.818;9.312;2023-10-31T11:49:49;3.03;;;0.88;;
18172;SDS011;9211;48.818;9.312;2023-10-31T11:52:16;2.85;;;0.75;;
18172;SDS011;9211;48.818;9.312;2023-10-31T11:54:44;3.95;;;0.70;;
18172;SDS011;9211;48.818;9.312;2023-10-31T11:57:12;3.55;;;0.90;;
18172;SDS011;9211;48.818;9.312;2023-10-31T11:59:54;5.90;;;0.82;;
18172;SDS011;9211;48.818;9.312;2023-10-31T12:02:21;6.20;;;0.98;;
18172;SDS011;9211;48.818;9.312;2023-10-31T12:04:48;4.82;;;1.00;;
18172;SDS011;9211;48.818;9.312;2023-10-31T12:07:15;3.13;;;0.70;;
18172;SDS011;9211;48.818;9.312;2023-10-31T12:09:45;4.60;;;0.88;;
18172;SDS011;9211;48.818;9.312;2023-10-31T12:12:14;3.10;;;1.00;;
18172;SDS011;9211;48.818;9.312;2023-10-31T12:14:41;3.90;;;1.00;;
18172;SDS011;9211;48.818;9.312;2023-10-31T12:17:08;5.25;;;0.95;;
18172;SDS011;9211;48.818;9.312;2023-10-31T12:19:35;2.25;;;0.80;;
18172;SDS011;9211;48.818;9.312;2023-10-31T12:22:11;3.60;;;0.85;;
18172;SDS011;9211;48.818;9.312;2023-10-31T12:24:39;6.60;;;0.93;;
18172;SDS011;9211;48.818;9.312;2023-10-31T12:27:05;4.25;;;0.95;;
18172;SDS011;9211;48.818;9.312;2023-10-31T12:29:34;4.15;;;0.90;;
18172;SDS011;9211;48.818;9.312;2023-10-31T12:32:00;2.70;;;0.82;;
18172;SDS011;9211;48.818;9.312;2023-10-31T12:34:28;4.60;;;0.95;;
18172;SDS011;9211;48.818;9.312;2023-10-31T12:36:55;4.78;;;0.80;;
18172;SDS011;9211;48.818;9.312;2023-10-31T12:39:24;3.15;;;0.90;;
18172;SDS011;9211;48.818;9.312;2023-10-31T12:41:52;5.00;;;0.90;;
18172;SDS011;9211;48.818;9.312;2023-10-31T12:44:20;3.72;;;0.90;;
18172;SDS011;9211;48.818;9.312;2023-10-31T12:46:51;3.60;;;0.90;;
18172;SDS011;9211;48.818;9.312;2023-10-31T12:49:18;5.43;;;1.00;;
18172;SDS011;9211;48.818;9.312;2023-10-31T12:51:55;2.58;;;1.00;;
18172;SDS011;9211;48.818;9.312;2023-10-31T12:54:27;3.42;;;0.93;;
18172;SDS011;9211;48.818;9.312;2023-10-31T12:56:58;2.50;;;0.93;;
18172;SDS011;9211;48.818;9.312;2023-10-31T12:59:26;3.92;;;1.02;;
18172;SDS011;9211;48.818;9.312;2023-10-31T13:01:54;2.92;;;1.20;;
18172;SDS011;9211;48.818;9.312;2023-10-31T13:04:24;4.93;;;1.63;;
18172;SDS011;9211;48.818;9.312;2023-10-31T13:06:55;6.30;;;1.85;;
18172;SDS011;9211;48.818;9.312;2023-10-31T13:09:29;6.13;;;2.38;;
18172;SDS011;9211;48.818;9.312;2023-10-31T13:11:57;2.85;;;1.30;;
18172;SDS011;9211;48.818;9.312;2023-10-31T13:14:25;3.67;;;1.00;;
18172;SDS011;9211;48.818;9.312;2023-10-31T13:16:53;3.30;;;0.90;;
18172;SDS011;9211;48.818;9.312;2023-10-31T13:19:20;4.10;;;0.93;;
18172;SDS011;9211;48.818;9.312;2023-10-31T13:21:47;3.17;;;0.93;;
18172;SDS011;9211;48.818;9.312;2023-10-31T13:24:14;4.57;;;0.82;;
18172;SDS011;9211;48.818;9.312;2023-10-31T13:26:40;3.58;;;1.00;;
18172;SDS011;9211;48.818;9.312;2023-10-31T13:29:09;3.28;;;1.23;;
18172;SDS011;9211;48.818;9.312;2023-10-31T13:31:36;4.13;;;1.00;;
18172;SDS011;9211;48.818;9.312;2023-10-31T13:34:05;2.83;;;0.97;;
18172;SDS011;9211;48.818;9.312;2023-10-31T13:36:32;4.30;;;1.50;;
18172;SDS011;9211;48.818;9.312;2023-10-31T13:38:58;3.90;;;1.20;;
18172;SDS011;9211;48.818;9.312;2023-10-31T13:41:26;3.40;;;0.90;;
18172;SDS011;9211;48.818;9.312;2023-10-31T13:43:53;3.33;;;0.93;;
18172;SDS011;9211;48.818;9.312;2023-10-31T13:46:19;3.15;;;0.88;;
18172;SDS011;9211;48.818;9.312;2023-10-31T13:48:48;3.77;;;0.80;;
18172;SDS011;9211;48.818;9.312;2023-10-31T13:51:16;2.88;;;0.70;;
18172;SDS011;9211;48.818;9.312;2023-10-31T13:53:44;3.05;;;0.70;;
18172;SDS011;9211;48.818;9.312;2023-10-31T13:56:11;3.28;;;0.88;;
18172;SDS011;9211;48.818;9.312;2023-10-31T13:58:38;2.15;;;0.75;;
18172;SDS011;9211;48.818;9.312;2023-10-31T14:01:05;5.13;;;2.08;;
18172;SDS011;9211;48.818;9.312;2023-10-31T14:03:32;11.60;;;4.68;;
18172;SDS011;9211;48.818;9.312;2023-10-31T14:05:58;6.88;;;3.00;;
18172;SDS011;9211;48.818;9.312;2023-10-31T14:08:27;5.13;;;1.55;;
18172;SDS011;9211;48.818;9.312;2023-10-31T14:10:54;2.75;;;1.08;;
18172;SDS011;9211;48.818;9.312;2023-10-31T14:13:22;4.80;;;1.15;;
18172;SDS011;9211;48.818;9.312;2023-10-31T14:15:49;5.30;;;2.92;;
18172;SDS011;9211;48.818;9.312;2023-10-31T14:18:15;6.68;;;4.07;;
18172;SDS011;9211;48.818;9.312;2023-10-31T14:20:42;5.28;;;2.75;;
18172;SDS011;9211;48.818;9.312;2023-10-31T14:23:09;5.43;;;2.33;;
18172;SDS011;9211;48.818;9.312;2023-10-31T14:25:37;5.73;;;1.90;;
18172;SDS011;9211;48.818;9.312;2023-10-31T14:28:04;4.53;;;1.77;;
18172;SDS011;9211;48.818;9.312;2023-10-31T14:30:32;4.30;;;1.65;;
18172;SDS011;9211;48.818;9.312;2023-10-31T14:32:59;4.80;;;1.30;;
18172;SDS011;9211;48.818;9.312;2023-10-31T14:35:26;4.22;;;1.45;;
18172;SDS011;9211;48.818;9.312;2023-10-31T14:37:53;4.22;;;1.27;;
18172;SDS011;9211;48.818;9.312;2023-10-31T14:40:19;3.03;;;1.25;;
18172;SDS011;9211;48.818;9.312;2023-10-31T14:42:48;4.25;;;1.30;;
18172;SDS011;9211;48.818;9.312;2023-10-31T14:45:15;3.83;;;1.30;;
18172;SDS011;9211;48.818;9.312;2023-10-31T14:47:42;4.15;;;1.20;;
18172;SDS011;9211;48.818;9.312;2023-10-31T14:50:09;5.35;;;1.40;;
18172;SDS011;9211;48.818;9.312;2023-10-31T14:52:36;5.70;;;1.27;;
18172;SDS011;9211;48.818;9.312;2023-10-31T14:55:03;3.80;;;1.40;;
18172;SDS011;9211;48.818;9.312;2023-10-31T14:57:31;5.07;;;1.42;;
18172;SDS011;9211;48.818;9.312;2023-10-31T14:59:59;8.93;;;1.60;;
18172;SDS011;9211;48.818;9.312;2023-10-31T15:02:26;4.93;;;1.45;;